Pickerington, OH

2:35 AM EDT on September 01, 2015 (GMT -0400)
Mingo Estates | | Change Station
CLOSE
Current Station
Personal Weather Station
Location: Pickerington, OH
Elevation: 860 ft
Nearby Weather Stations

Elev 860 ft 39.91 °N, 82.77 °W | Updated 2 seconds ago

Clear
Clear
68.0 °F
Feels Like 68.0 °F
N
0.0
Wind Variable Wind from SW
Gusts 0.0 mph

Today
High -- | Low -- °F
--% Chance of Precip.
Yesterday
High -- | Low -- °F
Precip. -- in
6:58 AM 8:02 PM
Waning Gibbous, 91% visible
Pressure 30.09 in
Visibility 8.0 miles
Clouds Clear
Dew Point 66 °F
Humidity 94%
Rainfall 0.00 in
Snow Depth Not available.
UV 0 out of 12
Pollen 9.90 out of 12
Air Quality Not available.
Flu Activity Not available.
METAR KCMH 010551Z 00000KT 8SM CLR 22/20 A3010 RMK AO2 SLP187 T02220200 10250 20217 50003
Pressure 30.09 in
Visibility 8.0 miles
Clouds Clear
Dew Point 66 °F
Humidity 94%
Rainfall 0.00 in
Snow Depth Not available.
UV 0 out of 12
Pollen 9.90 out of 12
Air Quality Not available.
Flu Activity Not available.
METAR KCMH 010551Z 00000KT 8SM CLR 22/20 A3010 RMK AO2 SLP187 T02220200 10250 20217 50003

10-Day Weather Forecast

×

Almanac

Astronomy

Sep. 01, 2015 Rise Set
Actual Time
Civil Twilight
Nautical Twilight
Astronomical Twilight
Moon
Length of Visible Light
Length of Day
Tomorrow will be .
, % of the Moon is Illuminated

Today's Extremes

State Highs State Lows

Community

WunderPhotos

Upload Photos

1,851,488 photos uploaded!

WunderBlogs® & News

Nearby

Air Quality

  Air Quality AQ Index Pollutant
Not available.

Snow Depth

Station Depth Elevation

Earthquake Activity

City Distance Mag. Time & Date
Minimum magnitude displayed is 2.5.

Coastal Water Temperatures

Place Temperature

Stations

Nearby Weather Stations

Station Location Temp. Windchill Dew Point Humidity Wind Precip. Elev Updated Type